Goodman, Mississippi
Current Conditions -  °F | °C
As of 4:53 PM on Tuesday 21 Oct 2014 (Local Time) from KGWO Reporting Station
Clear Clear  
Wind Chill: 78°   Ceiling: Unl
Heat Index: 79°   Visibility: 10mi
Dew Point: 54°   Wind: 6mph
Humidity: 43%   Direction: 10°N
Pressure: 30.01"   Gusts: NA
Location:  32.97°N, 89.91°W
Report Text: KGWO 212153Z AUTO 01005KT 10SM CLR 26/12 A3001 RMK AO2 SLP162 T02560122 TSNO
Loading
Personal Weather Stations






























Interactive Weather Map New forecast layout! Learn more

10-Day Weather Forecast

Advertisements
Track Severe Weather on mobile